sensor_id;sensor_type;location;lat;lon;timestamp;P1;durP1;ratioP1;P2;durP2;ratioP2
59442;SDS011;45247;47.466;19.004;2023-10-31T00:02:32;16.45;;;7.70;;
59442;SDS011;45247;47.466;19.004;2023-10-31T00:05:00;13.25;;;7.00;;
59442;SDS011;45247;47.466;19.004;2023-10-31T00:07:29;19.23;;;6.88;;
59442;SDS011;45247;47.466;19.004;2023-10-31T00:09:58;14.98;;;6.65;;
59442;SDS011;45247;47.466;19.004;2023-10-31T00:12:26;17.15;;;8.00;;
59442;SDS011;45247;47.466;19.004;2023-10-31T00:14:54;16.38;;;7.65;;
59442;SDS011;45247;47.466;19.004;2023-10-31T00:17:23;14.43;;;7.60;;
59442;SDS011;45247;47.466;19.004;2023-10-31T00:19:51;14.40;;;7.13;;
59442;SDS011;45247;47.466;19.004;2023-10-31T00:22:19;19.15;;;8.18;;
59442;SDS011;45247;47.466;19.004;2023-10-31T00:24:47;15.73;;;8.00;;
59442;SDS011;45247;47.466;19.004;2023-10-31T00:27:17;17.15;;;7.85;;
59442;SDS011;45247;47.466;19.004;2023-10-31T00:29:45;16.83;;;7.82;;
59442;SDS011;45247;47.466;19.004;2023-10-31T00:32:13;14.63;;;8.30;;
59442;SDS011;45247;47.466;19.004;2023-10-31T00:34:41;16.92;;;8.18;;
59442;SDS011;45247;47.466;19.004;2023-10-31T00:37:09;19.48;;;10.15;;
59442;SDS011;45247;47.466;19.004;2023-10-31T00:39:37;18.98;;;8.88;;
59442;SDS011;45247;47.466;19.004;2023-10-31T00:42:06;21.88;;;7.63;;
59442;SDS011;45247;47.466;19.004;2023-10-31T00:44:36;18.98;;;8.35;;
59442;SDS011;45247;47.466;19.004;2023-10-31T00:47:04;14.88;;;8.18;;
59442;SDS011;45247;47.466;19.004;2023-10-31T00:49:32;15.52;;;8.85;;
59442;SDS011;45247;47.466;19.004;2023-10-31T00:52:00;17.85;;;9.38;;
59442;SDS011;45247;47.466;19.004;2023-10-31T00:54:28;19.67;;;9.73;;
59442;SDS011;45247;47.466;19.004;2023-10-31T00:56:57;20.58;;;9.07;;
59442;SDS011;45247;47.466;19.004;2023-10-31T00:59:25;22.27;;;10.00;;
59442;SDS011;45247;47.466;19.004;2023-10-31T01:01:54;21.73;;;9.82;;
59442;SDS011;45247;47.466;19.004;2023-10-31T01:04:23;17.73;;;9.38;;
59442;SDS011;45247;47.466;19.004;2023-10-31T01:06:52;16.70;;;10.02;;
59442;SDS011;45247;47.466;19.004;2023-10-31T01:09:20;18.98;;;10.25;;
59442;SDS011;45247;47.466;19.004;2023-10-31T01:11:48;17.05;;;9.40;;
59442;SDS011;45247;47.466;19.004;2023-10-31T01:14:16;16.85;;;8.18;;
59442;SDS011;45247;47.466;19.004;2023-10-31T01:16:45;22.83;;;10.73;;
59442;SDS011;45247;47.466;19.004;2023-10-31T01:19:14;17.40;;;9.23;;
59442;SDS011;45247;47.466;19.004;2023-10-31T01:21:42;19.23;;;9.00;;
59442;SDS011;45247;47.466;19.004;2023-10-31T01:24:11;20.52;;;9.48;;
59442;SDS011;45247;47.466;19.004;2023-10-31T01:26:39;19.08;;;9.52;;
59442;SDS011;45247;47.466;19.004;2023-10-31T01:29:07;18.77;;;9.23;;
59442;SDS011;45247;47.466;19.004;2023-10-31T01:31:35;19.48;;;8.95;;
59442;SDS011;45247;47.466;19.004;2023-10-31T01:34:22;20.90;;;10.15;;
59442;SDS011;45247;47.466;19.004;2023-10-31T01:36:51;19.77;;;9.05;;
59442;SDS011;45247;47.466;19.004;2023-10-31T01:39:19;26.92;;;10.25;;
59442;SDS011;45247;47.466;19.004;2023-10-31T01:41:47;19.95;;;9.52;;
59442;SDS011;45247;47.466;19.004;2023-10-31T01:44:16;19.92;;;9.35;;
59442;SDS011;45247;47.466;19.004;2023-10-31T01:46:44;16.75;;;9.27;;
59442;SDS011;45247;47.466;19.004;2023-10-31T01:49:12;23.05;;;8.80;;
59442;SDS011;45247;47.466;19.004;2023-10-31T01:51:42;17.33;;;9.93;;
59442;SDS011;45247;47.466;19.004;2023-10-31T01:54:13;20.48;;;9.77;;
59442;SDS011;45247;47.466;19.004;2023-10-31T01:56:42;22.45;;;9.52;;
59442;SDS011;45247;47.466;19.004;2023-10-31T01:59:11;20.52;;;9.63;;
59442;SDS011;45247;47.466;19.004;2023-10-31T02:01:39;19.83;;;9.82;;
59442;SDS011;45247;47.466;19.004;2023-10-31T02:04:07;14.90;;;9.38;;
59442;SDS011;45247;47.466;19.004;2023-10-31T02:06:35;18.67;;;10.00;;
59442;SDS011;45247;47.466;19.004;2023-10-31T02:09:05;18.60;;;9.57;;
59442;SDS011;45247;47.466;19.004;2023-10-31T02:11:34;23.67;;;10.07;;
59442;SDS011;45247;47.466;19.004;2023-10-31T02:14:02;18.58;;;10.15;;
59442;SDS011;45247;47.466;19.004;2023-10-31T02:16:31;22.75;;;10.48;;
59442;SDS011;45247;47.466;19.004;2023-10-31T02:18:59;17.10;;;9.32;;
59442;SDS011;45247;47.466;19.004;2023-10-31T02:21:27;20.70;;;10.18;;
59442;SDS011;45247;47.466;19.004;2023-10-31T02:23:59;19.58;;;9.88;;
59442;SDS011;45247;47.466;19.004;2023-10-31T02:26:30;19.77;;;9.77;;
59442;SDS011;45247;47.466;19.004;2023-10-31T02:28:59;18.38;;;9.40;;
59442;SDS011;45247;47.466;19.004;2023-10-31T02:31:28;25.35;;;9.60;;
59442;SDS011;45247;47.466;19.004;2023-10-31T02:33:56;17.40;;;9.63;;
59442;SDS011;45247;47.466;19.004;2023-10-31T02:36:25;22.65;;;9.70;;
59442;SDS011;45247;47.466;19.004;2023-10-31T02:38:53;19.48;;;9.43;;
59442;SDS011;45247;47.466;19.004;2023-10-31T02:41:23;17.77;;;9.18;;
59442;SDS011;45247;47.466;19.004;2023-10-31T02:43:52;18.60;;;9.23;;
59442;SDS011;45247;47.466;19.004;2023-10-31T02:46:22;18.75;;;9.90;;
59442;SDS011;45247;47.466;19.004;2023-10-31T02:48:50;18.63;;;10.30;;
59442;SDS011;45247;47.466;19.004;2023-10-31T02:51:18;18.80;;;9.93;;
59442;SDS011;45247;47.466;19.004;2023-10-31T02:53:46;22.15;;;9.27;;
59442;SDS011;45247;47.466;19.004;2023-10-31T02:56:15;18.30;;;9.75;;
59442;SDS011;45247;47.466;19.004;2023-10-31T02:58:44;19.20;;;9.73;;
59442;SDS011;45247;47.466;19.004;2023-10-31T03:01:12;22.77;;;10.07;;
59442;SDS011;45247;47.466;19.004;2023-10-31T03:03:41;23.65;;;9.85;;
59442;SDS011;45247;47.466;19.004;2023-10-31T03:06:09;21.70;;;10.32;;
59442;SDS011;45247;47.466;19.004;2023-10-31T03:08:37;19.98;;;10.02;;
59442;SDS011;45247;47.466;19.004;2023-10-31T03:11:05;17.40;;;9.63;;
59442;SDS011;45247;47.466;19.004;2023-10-31T03:13:33;16.45;;;8.77;;
59442;SDS011;45247;47.466;19.004;2023-10-31T03:16:03;17.92;;;8.73;;
59442;SDS011;45247;47.466;19.004;2023-10-31T03:18:31;17.50;;;9.05;;
59442;SDS011;45247;47.466;19.004;2023-10-31T03:20:59;22.95;;;10.60;;
59442;SDS011;45247;47.466;19.004;2023-10-31T03:23:28;18.98;;;8.82;;
59442;SDS011;45247;47.466;19.004;2023-10-31T03:25:56;24.95;;;10.98;;
59442;SDS011;45247;47.466;19.004;2023-10-31T03:28:24;21.70;;;9.85;;
59442;SDS011;45247;47.466;19.004;2023-10-31T03:30:53;17.92;;;9.05;;
59442;SDS011;45247;47.466;19.004;2023-10-31T03:33:23;21.13;;;9.38;;
59442;SDS011;45247;47.466;19.004;2023-10-31T03:35:51;16.65;;;9.30;;
59442;SDS011;45247;47.466;19.004;2023-10-31T03:38:20;16.45;;;9.27;;
59442;SDS011;45247;47.466;19.004;2023-10-31T03:40:48;17.48;;;9.77;;
59442;SDS011;45247;47.466;19.004;2023-10-31T03:43:16;14.82;;;9.00;;
59442;SDS011;45247;47.466;19.004;2023-10-31T03:45:45;16.30;;;9.23;;
59442;SDS011;45247;47.466;19.004;2023-10-31T03:48:15;17.45;;;9.23;;
59442;SDS011;45247;47.466;19.004;2023-10-31T03:50:44;20.50;;;10.20;;
59442;SDS011;45247;47.466;19.004;2023-10-31T03:53:13;21.10;;;10.10;;
59442;SDS011;45247;47.466;19.004;2023-10-31T03:55:41;19.08;;;8.52;;
59442;SDS011;45247;47.466;19.004;2023-10-31T03:58:09;22.98;;;9.98;;
59442;SDS011;45247;47.466;19.004;2023-10-31T04:00:38;16.15;;;8.00;;
59442;SDS011;45247;47.466;19.004;2023-10-31T04:03:07;15.48;;;8.35;;
59442;SDS011;45247;47.466;19.004;2023-10-31T04:05:35;14.93;;;8.32;;
59442;SDS011;45247;47.466;19.004;2023-10-31T04:08:05;16.83;;;8.48;;
59442;SDS011;45247;47.466;19.004;2023-10-31T04:10:33;15.98;;;9.48;;
59442;SDS011;45247;47.466;19.004;2023-10-31T04:13:02;18.40;;;9.57;;
59442;SDS011;45247;47.466;19.004;2023-10-31T04:15:30;15.43;;;8.38;;
59442;SDS011;45247;47.466;19.004;2023-10-31T04:17:58;22.13;;;8.52;;
59442;SDS011;45247;47.466;19.004;2023-10-31T04:20:27;19.75;;;9.07;;
59442;SDS011;45247;47.466;19.004;2023-10-31T04:22:55;17.63;;;9.30;;
59442;SDS011;45247;47.466;19.004;2023-10-31T04:25:24;18.40;;;9.05;;
59442;SDS011;45247;47.466;19.004;2023-10-31T04:27:53;17.27;;;8.48;;
59442;SDS011;45247;47.466;19.004;2023-10-31T04:30:24;18.77;;;9.32;;
59442;SDS011;45247;47.466;19.004;2023-10-31T04:32:52;17.27;;;9.50;;
59442;SDS011;45247;47.466;19.004;2023-10-31T04:35:21;16.42;;;9.43;;
59442;SDS011;45247;47.466;19.004;2023-10-31T04:37:49;17.30;;;8.68;;
59442;SDS011;45247;47.466;19.004;2023-10-31T04:40:17;18.40;;;9.70;;
59442;SDS011;45247;47.466;19.004;2023-10-31T04:42:47;15.60;;;8.50;;
59442;SDS011;45247;47.466;19.004;2023-10-31T04:45:15;17.70;;;9.40;;
59442;SDS011;45247;47.466;19.004;2023-10-31T04:47:43;16.77;;;9.20;;
59442;SDS011;45247;47.466;19.004;2023-10-31T04:50:12;14.05;;;8.95;;
59442;SDS011;45247;47.466;19.004;2023-10-31T04:52:40;16.17;;;8.35;;
59442;SDS011;45247;47.466;19.004;2023-10-31T04:55:08;15.00;;;7.72;;
59442;SDS011;45247;47.466;19.004;2023-10-31T04:57:37;11.40;;;7.90;;
59442;SDS011;45247;47.466;19.004;2023-10-31T05:00:07;13.98;;;7.95;;
59442;SDS011;45247;47.466;19.004;2023-10-31T05:02:36;15.27;;;7.75;;
59442;SDS011;45247;47.466;19.004;2023-10-31T05:05:05;16.27;;;7.95;;
59442;SDS011;45247;47.466;19.004;2023-10-31T05:07:33;15.23;;;7.95;;
59442;SDS011;45247;47.466;19.004;2023-10-31T05:10:02;13.98;;;7.22;;
59442;SDS011;45247;47.466;19.004;2023-10-31T05:12:30;9.88;;;6.38;;
59442;SDS011;45247;47.466;19.004;2023-10-31T05:14:58;11.25;;;7.85;;
59442;SDS011;45247;47.466;19.004;2023-10-31T05:17:28;12.90;;;7.55;;
59442;SDS011;45247;47.466;19.004;2023-10-31T05:22:43;13.25;;;6.75;;
59442;SDS011;45247;47.466;19.004;2023-10-31T05:25:11;10.93;;;6.60;;
59442;SDS011;45247;47.466;19.004;2023-10-31T05:27:39;18.17;;;7.00;;
59442;SDS011;45247;47.466;19.004;2023-10-31T05:30:07;14.15;;;7.05;;
59442;SDS011;45247;47.466;19.004;2023-10-31T05:32:37;15.35;;;7.30;;
59442;SDS011;45247;47.466;19.004;2023-10-31T05:35:06;17.98;;;6.70;;
59442;SDS011;45247;47.466;19.004;2023-10-31T05:37:35;14.18;;;6.45;;
59442;SDS011;45247;47.466;19.004;2023-10-31T05:40:04;14.55;;;6.82;;
59442;SDS011;45247;47.466;19.004;2023-10-31T05:42:33;11.50;;;5.90;;
59442;SDS011;45247;47.466;19.004;2023-10-31T05:45:02;11.00;;;6.57;;
59442;SDS011;45247;47.466;19.004;2023-10-31T05:47:31;13.13;;;6.45;;
59442;SDS011;45247;47.466;19.004;2023-10-31T05:50:02;10.20;;;6.10;;
59442;SDS011;45247;47.466;19.004;2023-10-31T05:52:30;12.55;;;6.10;;
59442;SDS011;45247;47.466;19.004;2023-10-31T05:54:58;12.30;;;6.75;;
59442;SDS011;45247;47.466;19.004;2023-10-31T05:57:27;13.85;;;6.68;;
59442;SDS011;45247;47.466;19.004;2023-10-31T05:59:55;15.05;;;6.38;;
59442;SDS011;45247;47.466;19.004;2023-10-31T06:02:23;15.02;;;7.05;;
59442;SDS011;45247;47.466;19.004;2023-10-31T06:04:51;14.20;;;5.97;;
59442;SDS011;45247;47.466;19.004;2023-10-31T06:07:21;10.13;;;6.22;;
59442;SDS011;45247;47.466;19.004;2023-10-31T06:09:49;14.80;;;6.05;;
59442;SDS011;45247;47.466;19.004;2023-10-31T06:12:17;11.73;;;6.18;;
59442;SDS011;45247;47.466;19.004;2023-10-31T06:14:45;9.93;;;5.40;;
59442;SDS011;45247;47.466;19.004;2023-10-31T06:17:14;12.10;;;6.28;;
59442;SDS011;45247;47.466;19.004;2023-10-31T06:19:42;11.77;;;6.53;;
59442;SDS011;45247;47.466;19.004;2023-10-31T06:22:12;13.73;;;6.22;;
59442;SDS011;45247;47.466;19.004;2023-10-31T06:24:41;18.33;;;6.07;;
59442;SDS011;45247;47.466;19.004;2023-10-31T06:27:09;11.88;;;5.75;;
59442;SDS011;45247;47.466;19.004;2023-10-31T06:29:38;11.25;;;6.60;;
59442;SDS011;45247;47.466;19.004;2023-10-31T06:32:26;11.05;;;6.03;;
59442;SDS011;45247;47.466;19.004;2023-10-31T06:34:54;11.88;;;5.55;;
59442;SDS011;45247;47.466;19.004;2023-10-31T06:37:22;9.30;;;4.72;;
59442;SDS011;45247;47.466;19.004;2023-10-31T06:39:52;9.70;;;5.00;;
59442;SDS011;45247;47.466;19.004;2023-10-31T06:42:20;12.00;;;5.75;;
59442;SDS011;45247;47.466;19.004;2023-10-31T06:44:48;12.02;;;5.80;;
59442;SDS011;45247;47.466;19.004;2023-10-31T06:47:17;9.32;;;5.22;;
59442;SDS011;45247;47.466;19.004;2023-10-31T06:49:45;13.60;;;5.15;;
59442;SDS011;45247;47.466;19.004;2023-10-31T06:52:13;9.85;;;5.22;;
59442;SDS011;45247;47.466;19.004;2023-10-31T06:54:41;19.27;;;6.07;;
59442;SDS011;45247;47.466;19.004;2023-10-31T06:57:11;10.75;;;4.93;;
59442;SDS011;45247;47.466;19.004;2023-10-31T06:59:39;13.93;;;4.85;;
59442;SDS011;45247;47.466;19.004;2023-10-31T07:02:08;8.00;;;4.50;;
59442;SDS011;45247;47.466;19.004;2023-10-31T07:04:37;12.10;;;4.35;;
59442;SDS011;45247;47.466;19.004;2023-10-31T07:07:05;9.80;;;4.65;;
59442;SDS011;45247;47.466;19.004;2023-10-31T07:09:33;8.82;;;4.63;;
59442;SDS011;45247;47.466;19.004;2023-10-31T07:12:01;9.00;;;4.53;;
59442;SDS011;45247;47.466;19.004;2023-10-31T07:14:31;15.45;;;4.50;;
59442;SDS011;45247;47.466;19.004;2023-10-31T07:16:59;15.73;;;4.60;;
59442;SDS011;45247;47.466;19.004;2023-10-31T07:19:28;11.52;;;3.95;;
59442;SDS011;45247;47.466;19.004;2023-10-31T07:21:56;9.45;;;3.95;;
59442;SDS011;45247;47.466;19.004;2023-10-31T07:24:24;9.82;;;4.00;;
59442;SDS011;45247;47.466;19.004;2023-10-31T07:26:53;7.97;;;4.13;;
59442;SDS011;45247;47.466;19.004;2023-10-31T07:29:21;8.35;;;3.58;;
59442;SDS011;45247;47.466;19.004;2023-10-31T07:31:51;7.45;;;3.80;;
59442;SDS011;45247;47.466;19.004;2023-10-31T07:34:19;7.85;;;3.80;;
59442;SDS011;45247;47.466;19.004;2023-10-31T07:36:47;8.02;;;3.70;;
59442;SDS011;45247;47.466;19.004;2023-10-31T07:39:15;9.20;;;3.58;;
59442;SDS011;45247;47.466;19.004;2023-10-31T07:41:44;10.18;;;3.75;;
59442;SDS011;45247;47.466;19.004;2023-10-31T07:44:12;9.45;;;4.18;;
59442;SDS011;45247;47.466;19.004;2023-10-31T07:46:40;8.52;;;4.10;;
59442;SDS011;45247;47.466;19.004;2023-10-31T07:49:09;8.02;;;3.30;;
59442;SDS011;45247;47.466;19.004;2023-10-31T07:51:38;7.28;;;4.30;;
59442;SDS011;45247;47.466;19.004;2023-10-31T07:54:06;8.10;;;3.53;;
59442;SDS011;45247;47.466;19.004;2023-10-31T07:56:36;5.35;;;2.72;;
59442;SDS011;45247;47.466;19.004;2023-10-31T07:59:04;14.32;;;3.63;;
59442;SDS011;45247;47.466;19.004;2023-10-31T08:01:34;8.55;;;3.28;;
59442;SDS011;45247;47.466;19.004;2023-10-31T08:04:02;10.30;;;3.45;;
59442;SDS011;45247;47.466;19.004;2023-10-31T08:06:32;5.13;;;3.10;;
59442;SDS011;45247;47.466;19.004;2023-10-31T08:09:00;10.13;;;3.30;;
59442;SDS011;45247;47.466;19.004;2023-10-31T08:11:31;6.00;;;3.47;;
59442;SDS011;45247;47.466;19.004;2023-10-31T08:14:01;5.75;;;2.97;;
59442;SDS011;45247;47.466;19.004;2023-10-31T08:16:29;8.07;;;3.35;;
59442;SDS011;45247;47.466;19.004;2023-10-31T08:18:56;8.20;;;3.30;;
59442;SDS011;45247;47.466;19.004;2023-10-31T08:21:25;7.40;;;3.53;;
59442;SDS011;45247;47.466;19.004;2023-10-31T08:23:56;4.88;;;2.70;;
59442;SDS011;45247;47.466;19.004;2023-10-31T08:26:24;8.25;;;3.60;;
59442;SDS011;45247;47.466;19.004;2023-10-31T08:28:52;5.05;;;2.63;;
59442;SDS011;45247;47.466;19.004;2023-10-31T08:31:20;6.68;;;3.00;;
59442;SDS011;45247;47.466;19.004;2023-10-31T08:33:48;6.15;;;3.10;;
59442;SDS011;45247;47.466;19.004;2023-10-31T08:36:17;7.22;;;3.17;;
59442;SDS011;45247;47.466;19.004;2023-10-31T08:38:45;6.82;;;3.13;;
59442;SDS011;45247;47.466;19.004;2023-10-31T08:41:14;7.78;;;3.03;;
59442;SDS011;45247;47.466;19.004;2023-10-31T08:43:46;5.88;;;3.08;;
59442;SDS011;45247;47.466;19.004;2023-10-31T08:46:15;6.68;;;2.90;;
59442;SDS011;45247;47.466;19.004;2023-10-31T08:48:43;6.90;;;2.65;;
59442;SDS011;45247;47.466;19.004;2023-10-31T08:51:11;8.85;;;2.88;;
59442;SDS011;45247;47.466;19.004;2023-10-31T08:53:40;5.65;;;2.78;;
59442;SDS011;45247;47.466;19.004;2023-10-31T08:56:08;7.13;;;2.95;;
59442;SDS011;45247;47.466;19.004;2023-10-31T08:58:37;9.73;;;3.53;;
59442;SDS011;45247;47.466;19.004;2023-10-31T09:01:06;7.50;;;2.30;;
59442;SDS011;45247;47.466;19.004;2023-10-31T09:03:34;9.68;;;3.63;;
59442;SDS011;45247;47.466;19.004;2023-10-31T09:06:03;10.27;;;2.90;;
59442;SDS011;45247;47.466;19.004;2023-10-31T09:08:32;4.72;;;2.53;;
59442;SDS011;45247;47.466;19.004;2023-10-31T09:11:00;9.35;;;3.20;;
59442;SDS011;45247;47.466;19.004;2023-10-31T09:13:28;6.70;;;3.10;;
59442;SDS011;45247;47.466;19.004;2023-10-31T09:15:59;12.15;;;3.03;;
59442;SDS011;45247;47.466;19.004;2023-10-31T09:18:27;10.52;;;2.70;;
59442;SDS011;45247;47.466;19.004;2023-10-31T09:20:56;9.20;;;3.10;;
59442;SDS011;45247;47.466;19.004;2023-10-31T09:23:24;8.35;;;3.40;;
59442;SDS011;45247;47.466;19.004;2023-10-31T09:25:52;10.05;;;3.10;;
59442;SDS011;45247;47.466;19.004;2023-10-31T09:28:21;6.60;;;2.83;;
59442;SDS011;45247;47.466;19.004;2023-10-31T09:30:49;6.47;;;2.72;;
59442;SDS011;45247;47.466;19.004;2023-10-31T09:33:19;6.03;;;2.92;;
59442;SDS011;45247;47.466;19.004;2023-10-31T09:35:47;6.72;;;2.90;;
59442;SDS011;45247;47.466;19.004;2023-10-31T09:38:16;5.90;;;3.05;;
59442;SDS011;45247;47.466;19.004;2023-10-31T09:40:44;7.60;;;3.30;;
59442;SDS011;45247;47.466;19.004;2023-10-31T09:43:12;8.13;;;3.20;;
59442;SDS011;45247;47.466;19.004;2023-10-31T09:45:40;6.32;;;3.03;;
59442;SDS011;45247;47.466;19.004;2023-10-31T09:48:09;9.02;;;2.63;;
59442;SDS011;45247;47.466;19.004;2023-10-31T09:50:39;7.07;;;2.78;;
59442;SDS011;45247;47.466;19.004;2023-10-31T09:53:09;6.55;;;2.67;;
59442;SDS011;45247;47.466;19.004;2023-10-31T09:55:38;9.27;;;3.08;;
59442;SDS011;45247;47.466;19.004;2023-10-31T09:58:07;12.18;;;3.28;;
59442;SDS011;45247;47.466;19.004;2023-10-31T10:00:35;7.47;;;2.40;;
59442;SDS011;45247;47.466;19.004;2023-10-31T10:03:04;4.38;;;2.38;;
59442;SDS011;45247;47.466;19.004;2023-10-31T10:05:32;9.45;;;2.80;;
59442;SDS011;45247;47.466;19.004;2023-10-31T10:08:04;8.25;;;2.83;;
59442;SDS011;45247;47.466;19.004;2023-10-31T10:10:35;6.77;;;2.73;;
59442;SDS011;45247;47.466;19.004;2023-10-31T10:13:03;7.78;;;2.72;;
59442;SDS011;45247;47.466;19.004;2023-10-31T10:15:42;7.40;;;2.75;;
59442;SDS011;45247;47.466;19.004;2023-10-31T10:18:19;8.77;;;2.65;;
59442;SDS011;45247;47.466;19.004;2023-10-31T10:20:55;6.70;;;2.80;;
59442;SDS011;45247;47.466;19.004;2023-10-31T10:23:27;10.82;;;3.03;;
59442;SDS011;45247;47.466;19.004;2023-10-31T10:25:56;5.60;;;2.13;;
59442;SDS011;45247;47.466;19.004;2023-10-31T10:28:25;10.75;;;3.00;;
59442;SDS011;45247;47.466;19.004;2023-10-31T10:30:55;8.02;;;2.67;;
59442;SDS011;45247;47.466;19.004;2023-10-31T10:33:24;8.57;;;2.58;;
59442;SDS011;45247;47.466;19.004;2023-10-31T10:35:52;4.05;;;2.15;;
59442;SDS011;45247;47.466;19.004;2023-10-31T10:38:23;9.65;;;2.63;;
59442;SDS011;45247;47.466;19.004;2023-10-31T10:40:53;6.95;;;2.70;;
59442;SDS011;45247;47.466;19.004;2023-10-31T10:43:23;8.73;;;2.40;;
59442;SDS011;45247;47.466;19.004;2023-10-31T10:45:52;6.38;;;2.33;;
59442;SDS011;45247;47.466;19.004;2023-10-31T10:48:24;5.10;;;2.42;;
59442;SDS011;45247;47.466;19.004;2023-10-31T10:50:57;5.85;;;2.28;;
59442;SDS011;45247;47.466;19.004;2023-10-31T10:53:29;5.80;;;2.25;;
59442;SDS011;45247;47.466;19.004;2023-10-31T10:56:09;3.70;;;1.88;;
59442;SDS011;45247;47.466;19.004;2023-10-31T10:58:44;6.57;;;2.17;;
59442;SDS011;45247;47.466;19.004;2023-10-31T11:01:19;6.68;;;2.35;;
59442;SDS011;45247;47.466;19.004;2023-10-31T11:03:47;6.03;;;2.35;;
59442;SDS011;45247;47.466;19.004;2023-10-31T11:06:16;14.55;;;2.80;;
59442;SDS011;45247;47.466;19.004;2023-10-31T11:08:47;5.05;;;2.30;;
59442;SDS011;45247;47.466;19.004;2023-10-31T11:11:16;12.65;;;2.88;;
59442;SDS011;45247;47.466;19.004;2023-10-31T11:13:47;6.05;;;2.10;;
59442;SDS011;45247;47.466;19.004;2023-10-31T11:16:17;7.38;;;2.45;;
59442;SDS011;45247;47.466;19.004;2023-10-31T11:18:52;5.38;;;2.47;;
59442;SDS011;45247;47.466;19.004;2023-10-31T11:21:22;5.53;;;2.30;;
59442;SDS011;45247;47.466;19.004;2023-10-31T11:23:56;9.88;;;2.95;;
59442;SDS011;45247;47.466;19.004;2023-10-31T11:26:27;5.85;;;2.17;;
59442;SDS011;45247;47.466;19.004;2023-10-31T11:29:02;6.85;;;2.47;;
59442;SDS011;45247;47.466;19.004;2023-10-31T11:31:32;5.28;;;2.13;;
59442;SDS011;45247;47.466;19.004;2023-10-31T11:34:00;9.43;;;2.30;;
59442;SDS011;45247;47.466;19.004;2023-10-31T11:36:30;6.65;;;2.15;;
59442;SDS011;45247;47.466;19.004;2023-10-31T11:39:09;12.30;;;2.90;;
59442;SDS011;45247;47.466;19.004;2023-10-31T11:41:42;4.45;;;2.42;;
59442;SDS011;45247;47.466;19.004;2023-10-31T11:44:14;8.57;;;2.22;;
59442;SDS011;45247;47.466;19.004;2023-10-31T11:46:42;6.28;;;2.33;;
59442;SDS011;45247;47.466;19.004;2023-10-31T11:49:14;10.60;;;2.75;;
59442;SDS011;45247;47.466;19.004;2023-10-31T11:51:44;5.35;;;2.10;;
59442;SDS011;45247;47.466;19.004;2023-10-31T11:54:14;6.55;;;2.17;;
59442;SDS011;45247;47.466;19.004;2023-10-31T11:56:51;4.40;;;2.17;;
59442;SDS011;45247;47.466;19.004;2023-10-31T11:59:20;5.97;;;2.20;;
59442;SDS011;45247;47.466;19.004;2023-10-31T12:01:48;6.25;;;2.10;;
59442;SDS011;45247;47.466;19.004;2023-10-31T12:04:22;5.43;;;2.22;;
59442;SDS011;45247;47.466;19.004;2023-10-31T12:06:58;5.68;;;2.08;;
59442;SDS011;45247;47.466;19.004;2023-10-31T12:09:27;10.07;;;2.85;;
59442;SDS011;45247;47.466;19.004;2023-10-31T12:12:00;4.53;;;2.05;;
59442;SDS011;45247;47.466;19.004;2023-10-31T12:14:29;7.40;;;2.30;;
59442;SDS011;45247;47.466;19.004;2023-10-31T12:17:03;6.00;;;2.58;;
59442;SDS011;45247;47.466;19.004;2023-10-31T12:19:32;6.55;;;2.17;;
59442;SDS011;45247;47.466;19.004;2023-10-31T12:22:00;13.68;;;4.60;;
59442;SDS011;45247;47.466;19.004;2023-10-31T12:24:30;12.18;;;3.67;;
59442;SDS011;45247;47.466;19.004;2023-10-31T12:27:01;12.18;;;4.00;;
59442;SDS011;45247;47.466;19.004;2023-10-31T12:29:30;17.83;;;4.18;;
59442;SDS011;45247;47.466;19.004;2023-10-31T12:31:58;15.90;;;5.38;;
59442;SDS011;45247;47.466;19.004;2023-10-31T12:34:26;13.82;;;5.80;;
59442;SDS011;45247;47.466;19.004;2023-10-31T12:36:55;13.82;;;5.28;;
59442;SDS011;45247;47.466;19.004;2023-10-31T12:39:25;11.13;;;5.55;;
59442;SDS011;45247;47.466;19.004;2023-10-31T12:41:55;9.02;;;4.57;;
59442;SDS011;45247;47.466;19.004;2023-10-31T12:44:26;12.80;;;4.35;;
59442;SDS011;45247;47.466;19.004;2023-10-31T12:46:55;8.68;;;4.85;;
59442;SDS011;45247;47.466;19.004;2023-10-31T12:49:24;8.80;;;4.38;;
59442;SDS011;45247;47.466;19.004;2023-10-31T12:51:54;7.65;;;4.40;;
59442;SDS011;45247;47.466;19.004;2023-10-31T12:54:27;9.02;;;4.28;;
59442;SDS011;45247;47.466;19.004;2023-10-31T12:57:00;10.50;;;4.05;;
59442;SDS011;45247;47.466;19.004;2023-10-31T12:59:30;9.20;;;4.65;;
59442;SDS011;45247;47.466;19.004;2023-10-31T13:02:00;7.45;;;4.30;;
59442;SDS011;45247;47.466;19.004;2023-10-31T13:04:29;10.68;;;4.72;;
59442;SDS011;45247;47.466;19.004;2023-10-31T13:06:59;9.02;;;4.53;;
59442;SDS011;45247;47.466;19.004;2023-10-31T13:09:29;14.70;;;5.28;;
59442;SDS011;45247;47.466;19.004;2023-10-31T13:11:58;13.52;;;6.10;;
59442;SDS011;45247;47.466;19.004;2023-10-31T13:14:30;14.65;;;5.80;;
59442;SDS011;45247;47.466;19.004;2023-10-31T13:16:58;10.90;;;4.80;;
59442;SDS011;45247;47.466;19.004;2023-10-31T13:19:27;8.55;;;4.90;;
59442;SDS011;45247;47.466;19.004;2023-10-31T13:21:55;10.52;;;5.15;;
59442;SDS011;45247;47.466;19.004;2023-10-31T13:24:23;13.05;;;5.28;;
59442;SDS011;45247;47.466;19.004;2023-10-31T13:26:51;8.70;;;4.00;;
59442;SDS011;45247;47.466;19.004;2023-10-31T13:29:20;7.28;;;3.95;;
59442;SDS011;45247;47.466;19.004;2023-10-31T13:31:50;11.80;;;3.95;;
59442;SDS011;45247;47.466;19.004;2023-10-31T13:34:18;9.90;;;4.13;;
59442;SDS011;45247;47.466;19.004;2023-10-31T13:36:46;9.07;;;4.47;;
59442;SDS011;45247;47.466;19.004;2023-10-31T13:39:18;11.32;;;4.78;;
59442;SDS011;45247;47.466;19.004;2023-10-31T13:41:48;10.57;;;4.70;;
59442;SDS011;45247;47.466;19.004;2023-10-31T13:44:17;8.73;;;3.40;;
59442;SDS011;45247;47.466;19.004;2023-10-31T13:46:44;6.18;;;3.03;;
59442;SDS011;45247;47.466;19.004;2023-10-31T13:49:14;6.53;;;2.95;;
59442;SDS011;45247;47.466;19.004;2023-10-31T13:51:42;4.22;;;2.42;;
59442;SDS011;45247;47.466;19.004;2023-10-31T13:54:10;3.15;;;1.70;;
59442;SDS011;45247;47.466;19.004;2023-10-31T13:56:39;5.10;;;1.77;;
59442;SDS011;45247;47.466;19.004;2023-10-31T13:59:07;2.63;;;1.60;;
59442;SDS011;45247;47.466;19.004;2023-10-31T14:01:35;2.50;;;1.48;;
59442;SDS011;45247;47.466;19.004;2023-10-31T14:04:04;4.35;;;1.67;;
59442;SDS011;45247;47.466;19.004;2023-10-31T14:06:35;2.63;;;1.40;;
59442;SDS011;45247;47.466;19.004;2023-10-31T14:09:05;2.22;;;1.50;;
59442;SDS011;45247;47.466;19.004;2023-10-31T14:11:34;4.40;;;1.70;;
59442;SDS011;45247;47.466;19.004;2023-10-31T14:14:02;2.58;;;1.55;;
59442;SDS011;45247;47.466;19.004;2023-10-31T14:16:33;2.50;;;1.70;;
59442;SDS011;45247;47.466;19.004;2023-10-31T14:19:01;1.75;;;1.40;;
59442;SDS011;45247;47.466;19.004;2023-10-31T14:21:30;1.85;;;1.23;;
59442;SDS011;45247;47.466;19.004;2023-10-31T14:24:06;1.92;;;1.42;;
59442;SDS011;45247;47.466;19.004;2023-10-31T14:26:39;3.13;;;1.20;;
59442;SDS011;45247;47.466;19.004;2023-10-31T14:29:10;2.60;;;1.47;;
59442;SDS011;45247;47.466;19.004;2023-10-31T14:31:39;5.00;;;1.65;;
59442;SDS011;45247;47.466;19.004;2023-10-31T14:34:09;3.08;;;1.30;;
59442;SDS011;45247;47.466;19.004;2023-10-31T14:36:37;1.90;;;1.20;;
59442;SDS011;45247;47.466;19.004;2023-10-31T14:39:07;1.50;;;1.10;;
59442;SDS011;45247;47.466;19.004;2023-10-31T14:41:36;1.38;;;0.90;;